Time;durP1;ratioP1;P1;durP2;ratioP2;P2;SDS_P1;SDS_P2;PMS_P1;PMS_P2;Temp;Humidity;BMP_temperature;BMP_pressure;BME280_temperature;BME280_humidity;BME280_pressure;Samples;Min_cycle;Max_cycle;Signal;HPM_P1;HPM_P2
2023/07/26 00:00:09;;;;;;;2.28;0.70;;;;;;;14.95;74.62;92181.69;2040993;70;20961;-87
2023/07/26 00:02:40;;;;;;;3.95;0.70;;;;;;;14.93;75.71;92193.66;2041037;70;20147;-86
2023/07/26 00:05:06;;;;;;;2.65;0.95;;;;;;;14.68;76.66;92196.97;2041140;70;20154;-87
2023/07/26 00:07:32;;;;;;;4.85;0.80;;;;;;;14.77;76.79;92198.03;2043271;70;20581;-87
2023/07/26 00:09:57;;;;;;;4.03;0.82;;;;;;;14.88;75.95;92197.72;2041492;70;20174;-87
2023/07/26 00:12:25;;;;;;;2.42;0.77;;;;;;;14.84;76.07;92205.34;2041489;70;20131;-87
2023/07/26 00:14:51;;;;;;;1.85;1.13;;;;;;;14.89;75.04;92219.03;2041120;70;20710;-87
2023/07/26 00:17:17;;;;;;;1.00;0.70;;;;;;;14.87;75.88;92218.22;2040811;70;20154;-86
2023/07/26 00:19:42;;;;;;;2.00;0.60;;;;;;;14.81;75.53;92220.84;2040689;70;20163;-86
2023/07/26 00:22:08;;;;;;;1.25;0.75;;;;;;;14.80;75.92;92231.44;2037543;70;20198;-86
2023/07/26 00:24:34;;;;;;;3.92;0.80;;;;;;;14.83;75.72;92232.25;2040850;70;20147;-87
2023/07/26 00:26:59;;;;;;;1.35;0.70;;;;;;;14.78;76.15;92225.69;2040282;70;20147;-87
2023/07/26 00:29:25;;;;;;;1.48;0.80;;;;;;;14.85;76.06;92232.31;2037488;70;20155;-86
2023/07/26 00:31:54;;;;;;;1.88;0.68;;;;;;;14.77;76.59;92234.84;2040776;70;20175;-87
2023/07/26 00:34:20;;;;;;;1.13;0.70;;;;;;;14.87;76.11;92238.06;2037515;70;20167;-87
2023/07/26 00:36:45;;;;;;;1.52;0.80;;;;;;;14.87;75.94;92235.22;2037496;70;20171;-87
2023/07/26 00:39:11;;;;;;;5.63;0.93;;;;;;;14.73;76.36;92250.31;2041242;70;20166;-87
2023/07/26 00:41:37;;;;;;;2.55;0.70;;;;;;;14.77;76.81;92254.69;2041302;70;20309;-87
2023/07/26 00:44:03;;;;;;;1.65;0.73;;;;;;;14.87;75.60;92257.91;2038007;70;20155;-87
2023/07/26 00:46:29;;;;;;;2.92;0.60;;;;;;;14.89;75.70;92261.53;2041012;70;20171;-87
2023/07/26 00:48:56;;;;;;;2.78;0.70;;;;;;;14.85;76.10;92260.66;2041262;70;20147;-86
2023/07/26 00:51:22;;;;;;;1.70;0.70;;;;;;;14.87;75.50;92255.06;2041127;70;20150;-86
2023/07/26 00:53:48;;;;;;;0.85;0.60;;;;;;;14.94;75.50;92262.44;2038151;70;20139;-87
2023/07/26 00:56:14;;;;;;;0.60;0.60;;;;;;;14.85;76.03;92252.88;2041176;70;20175;-87
2023/07/26 00:58:42;;;;;;;5.00;0.93;;;;;;;14.85;76.24;92249.31;2041210;70;20162;-87
2023/07/26 01:01:07;;;;;;;0.50;0.50;;;;;;;14.78;75.57;92248.34;2038261;70;20182;-86
2023/07/26 01:03:33;;;;;;;2.20;0.32;;;;;;;14.81;75.56;92240.66;2041059;70;20242;-86
2023/07/26 01:06:27;;;;;;;1.38;0.70;;;;;;;14.76;75.55;92239.78;2035327;70;20174;-86
2023/07/26 01:08:52;;;;;;;1.55;0.30;;;;;;;14.69;75.41;92238.09;2041525;70;20142;-87
2023/07/26 01:11:39;;;;;;;0.40;0.40;;;;;;;14.74;74.86;92239.69;2041294;70;20183;-87
2023/07/26 01:14:29;;;;;;;1.65;0.40;;;;;;;14.68;74.08;92231.69;2037695;70;20155;-87
2023/07/26 01:16:54;;;;;;;1.35;0.30;;;;;;;14.67;74.16;92230.25;2037664;70;20151;-86
2023/07/26 01:19:21;;;;;;;1.58;0.38;;;;;;;14.66;74.05;92233.72;2041041;70;20169;-86
2023/07/26 01:21:49;;;;;;;1.02;0.50;;;;;;;14.56;74.39;92230.50;2041407;70;20150;-87
2023/07/26 01:24:15;;;;;;;1.20;0.40;;;;;;;14.56;74.30;92231.22;2037815;70;20254;-86
2023/07/26 01:26:42;;;;;;;1.48;0.30;;;;;;;14.44;74.69;92242.06;2041151;70;20155;-87
2023/07/26 01:29:08;;;;;;;2.55;0.50;;;;;;;14.45;74.52;92244.25;2038537;70;20146;-86
2023/07/26 01:31:35;;;;;;;2.05;0.50;;;;;;;14.34;74.94;92239.56;2038042;70;20198;-88
2023/07/26 01:34:01;;;;;;;0.60;0.50;;;;;;;14.47;74.35;92241.47;2042282;70;20198;-88
2023/07/26 01:36:31;;;;;;;1.80;0.50;;;;;;;14.49;73.62;92252.94;2038556;70;20238;-86
2023/07/26 01:39:01;;;;;;;3.95;0.55;;;;;;;14.45;74.54;92255.56;2037870;70;20179;-87
2023/07/26 01:41:28;;;;;;;2.65;0.52;;;;;;;14.39;75.26;92261.00;2041070;70;20218;-87
2023/07/26 01:43:54;;;;;;;2.25;0.60;;;;;;;14.36;75.20;92259.47;2038374;70;20661;-86
2023/07/26 01:46:19;;;;;;;2.38;0.65;;;;;;;14.21;76.24;92268.78;2038065;70;20159;-86
2023/07/26 01:48:45;;;;;;;2.17;0.60;;;;;;;14.26;75.81;92267.56;2037908;70;20161;-87
2023/07/26 01:51:12;;;;;;;2.08;0.65;;;;;;;14.30;75.60;92272.66;2041168;70;20155;-86
2023/07/26 01:53:38;;;;;;;2.58;0.63;;;;;;;14.32;74.76;92272.72;2037819;70;20797;-87
2023/07/26 01:56:04;;;;;;;1.15;0.70;;;;;;;14.21;75.79;92275.16;2037899;70;20140;-86
2023/07/26 01:58:30;;;;;;;3.05;0.60;;;;;;;14.14;75.32;92259.28;2037732;70;20709;-88
2023/07/26 02:00:55;;;;;;;0.80;0.80;;;;;;;14.28;74.35;92278.22;2037354;70;20151;-87
2023/07/26 02:03:22;;;;;;;2.13;0.57;;;;;;;14.33;73.99;92282.66;2037227;70;20143;-87
2023/07/26 02:05:47;;;;;;;1.88;0.50;;;;;;;14.19;75.24;92292.03;2037546;70;20511;-86
2023/07/26 02:08:16;;;;;;;1.05;0.50;;;;;;;14.21;75.19;92280.09;2038105;70;20178;-86
2023/07/26 02:10:42;;;;;;;2.47;0.70;;;;;;;14.28;74.68;92292.38;2037504;70;20215;-86
2023/07/26 02:13:08;;;;;;;1.38;0.50;;;;;;;14.08;75.74;92292.28;2038105;70;20720;-86
2023/07/26 02:15:34;;;;;;;1.67;0.50;;;;;;;14.08;75.76;92289.47;2038145;70;20179;-88
2023/07/26 02:18:02;;;;;;;2.53;0.43;;;;;;;14.14;75.17;92287.59;2037308;70;20478;-89
2023/07/26 02:20:30;;;;;;;5.55;1.17;;;;;;;14.16;75.54;92301.84;2037984;70;20151;-87
2023/07/26 02:22:57;;;;;;;2.45;0.50;;;;;;;14.22;75.22;92312.69;2037851;70;20146;-87
2023/07/26 02:25:22;;;;;;;2.92;0.50;;;;;;;14.15;75.75;92300.38;2037858;70;20207;-88
2023/07/26 02:27:48;;;;;;;3.13;0.60;;;;;;;14.25;75.29;92314.25;2037848;70;20156;-87
2023/07/26 02:30:13;;;;;;;0.47;0.47;;;;;;;14.19;75.37;92311.88;2039223;70;20175;-89
2023/07/26 02:32:39;;;;;;;1.20;0.55;;;;;;;14.25;75.67;92322.72;2038428;70;20146;-89
2023/07/26 02:35:05;;;;;;;5.18;0.75;;;;;;;14.19;76.03;92320.34;2038142;70;20155;-87
2023/07/26 02:37:34;;;;;;;1.50;0.50;;;;;;;14.24;75.19;92321.25;2039608;70;20206;-88
2023/07/26 02:40:00;;;;;;;2.55;0.60;;;;;;;14.20;76.31;92330.31;2039243;70;20175;-87
2023/07/26 02:42:27;;;;;;;2.13;0.70;;;;;;;14.26;75.96;92324.19;2039426;70;20274;-88
2023/07/26 02:44:54;;;;;;;2.58;0.60;;;;;;;14.07;76.17;92334.00;2037701;70;20533;-88
2023/07/26 02:47:20;;;;;;;2.63;0.60;;;;;;;14.13;76.19;92334.25;2038038;70;20167;-89
2023/07/26 02:49:46;;;;;;;4.15;1.15;;;;;;;14.14;76.09;92337.81;2038421;70;20382;-88
2023/07/26 02:52:11;;;;;;;0.90;0.60;;;;;;;14.13;76.50;92344.84;2038208;70;20152;-87
2023/07/26 02:54:37;;;;;;;0.52;0.50;;;;;;;14.17;76.17;92340.09;2038032;70;20180;-87
2023/07/26 02:57:03;;;;;;;2.88;0.70;;;;;;;14.14;76.17;92346.31;2037742;70;20194;-87
2023/07/26 02:59:29;;;;;;;1.15;0.50;;;;;;;13.92;77.10;92363.06;2037199;70;20152;-86
2023/07/26 03:01:54;;;;;;;2.20;0.85;;;;;;;14.03;76.46;92358.59;2037090;70;20152;-88
2023/07/26 03:04:20;;;;;;;2.63;0.80;;;;;;;14.02;76.80;92368.44;2037933;70;20140;-87
2023/07/26 03:06:46;;;;;;;2.75;1.08;;;;;;;14.07;76.51;92365.16;2040054;70;20158;-87
2023/07/26 03:09:11;;;;;;;4.30;1.10;;;;;;;13.99;77.11;92357.03;2034838;70;20148;-87
2023/07/26 03:11:37;;;;;;;3.00;1.20;;;;;;;14.10;76.51;92374.44;2037900;70;20144;-87
2023/07/26 03:14:03;;;;;;;1.65;1.20;;;;;;;14.07;76.76;92376.47;2037698;70;20167;-87
2023/07/26 03:16:29;;;;;;;1.55;1.00;;;;;;;14.07;76.57;92376.47;2037178;70;20235;-87
2023/07/26 03:18:54;;;;;;;3.97;0.80;;;;;;;14.06;76.83;92389.13;2037683;70;20159;-87
2023/07/26 03:21:20;;;;;;;1.23;0.60;;;;;;;14.09;75.94;92379.38;2038037;70;20159;-87
2023/07/26 03:23:46;;;;;;;2.03;0.45;;;;;;;14.09;75.52;92389.97;2037916;70;20148;-87
2023/07/26 03:26:15;;;;;;;1.60;0.70;;;;;;;14.03;76.06;92381.97;2037720;70;20147;-86
2023/07/26 03:28:41;;;;;;;1.92;0.60;;;;;;;13.95;76.30;92375.94;2037631;70;20567;-87
2023/07/26 03:31:07;;;;;;;1.92;0.60;;;;;;;13.88;76.49;92391.19;2038014;70;20682;-86
2023/07/26 03:33:32;;;;;;;2.15;0.55;;;;;;;13.88;77.32;92388.34;2038011;70;20148;-86
2023/07/26 03:35:58;;;;;;;1.27;0.50;;;;;;;13.95;77.11;92390.09;2037911;70;20179;-88
2023/07/26 03:38:24;;;;;;;1.13;0.60;;;;;;;13.88;76.77;92394.00;2037087;70;20136;-87
2023/07/26 03:40:49;;;;;;;3.22;0.63;;;;;;;13.85;76.65;92396.03;2040206;70;20159;-88
2023/07/26 03:43:15;;;;;;;1.42;0.50;;;;;;;13.86;76.63;92391.09;2034731;70;20124;-87
2023/07/26 03:45:41;;;;;;;2.78;0.57;;;;;;;13.82;76.59;92400.13;2038139;70;20175;-88
2023/07/26 03:48:07;;;;;;;2.42;0.60;;;;;;;13.88;76.76;92413.81;2037362;70;20147;-86
2023/07/26 03:50:33;;;;;;;1.55;0.60;;;;;;;13.88;76.69;92411.75;2037866;70;20195;-86
2023/07/26 03:52:59;;;;;;;1.10;0.50;;;;;;;13.74;76.78;92396.94;2038296;70;20159;-87
2023/07/26 03:55:24;;;;;;;3.15;0.47;;;;;;;13.80;76.80;92405.72;2037544;70;20139;-86
2023/07/26 03:57:50;;;;;;;3.75;0.52;;;;;;;13.87;77.15;92412.38;2037867;70;20607;-87
2023/07/26 04:00:15;;;;;;;1.73;0.73;;;;;;;13.88;77.21;92416.66;2039950;70;20577;-87
2023/07/26 04:02:41;;;;;;;0.90;0.70;;;;;;;13.92;76.53;92426.03;2041320;70;20182;-87
2023/07/26 04:05:07;;;;;;;2.15;0.60;;;;;;;13.84;77.44;92427.81;2038446;70;20250;-87
2023/07/26 04:07:36;;;;;;;1.15;0.50;;;;;;;13.86;77.64;92439.22;2041744;70;20159;-86
2023/07/26 04:10:03;;;;;;;2.83;0.50;;;;;;;13.88;77.51;92442.88;2042961;70;20151;-86
2023/07/26 04:12:29;;;;;;;0.80;0.70;;;;;;;13.99;76.95;92441.94;2042701;70;20161;-87
2023/07/26 04:14:54;;;;;;;1.75;0.70;;;;;;;13.99;76.93;92447.59;2044038;70;20135;-88
2023/07/26 04:17:21;;;;;;;1.95;0.60;;;;;;;13.98;77.29;92446.16;2043378;70;20157;-86
2023/07/26 04:19:47;;;;;;;0.93;0.60;;;;;;;13.87;77.78;92443.50;2043175;70;20159;-88
2023/07/26 04:22:12;;;;;;;2.80;0.60;;;;;;;13.85;78.40;92446.25;2041888;70;20147;-89
2023/07/26 04:24:42;;;;;;;0.75;0.60;;;;;;;13.85;78.27;92466.78;2041597;70;20626;-89
2023/07/26 04:27:08;;;;;;;3.33;0.70;;;;;;;13.95;77.66;92470.06;2041723;70;20152;-88
2023/07/26 04:29:33;;;;;;;1.05;0.57;;;;;;;13.91;77.71;92461.38;2042145;70;20633;-88
2023/07/26 04:31:59;;;;;;;3.60;1.02;;;;;;;13.95;77.59;92472.88;2040165;70;20255;-86
2023/07/26 04:34:25;;;;;;;2.40;0.60;;;;;;;14.03;77.40;92481.00;2044494;70;20593;-86
2023/07/26 04:36:51;;;;;;;2.42;0.93;;;;;;;14.02;78.49;92481.63;2040783;70;20652;-86
2023/07/26 04:39:16;;;;;;;0.90;0.45;;;;;;;14.06;76.74;92482.53;2043353;70;20590;-86
2023/07/26 04:41:42;;;;;;;0.68;0.47;;;;;;;13.96;75.04;92491.31;2043399;70;20193;-86
2023/07/26 04:44:08;;;;;;;2.10;0.30;;;;;;;13.99;73.15;92490.03;2041945;70;20159;-89
2023/07/26 04:46:34;;;;;;;0.88;0.30;;;;;;;13.92;73.70;92501.72;2041886;70;20159;-86
2023/07/26 04:48:59;;;;;;;0.70;0.40;;;;;;;13.14;74.05;92503.75;2042008;70;20652;-85
2023/07/26 04:51:26;;;;;;;0.77;0.32;;;;;;;13.46;74.81;92495.38;2043386;70;20151;-88
2023/07/26 04:53:54;;;;;;;0.30;0.30;;;;;;;13.64;74.16;92496.22;2042000;70;20620;-84
2023/07/26 04:56:25;;;;;;;2.20;0.30;;;;;;;13.75;74.71;92499.53;2042222;70;20147;-86
2023/07/26 04:58:53;;;;;;;0.63;0.50;;;;;;;13.77;74.56;92497.53;2038904;70;20209;-85
2023/07/26 05:01:19;;;;;;;0.47;0.30;;;;;;;13.80;75.38;92506.84;2038012;70;20163;-89
2023/07/26 05:03:45;;;;;;;0.30;0.30;;;;;;;13.82;75.44;92521.81;2038502;70;20179;-88
2023/07/26 05:06:11;;;;;;;0.60;0.25;;;;;;;13.84;75.55;92524.75;2038064;70;20167;-86
2023/07/26 05:08:37;;;;;;;1.83;0.30;;;;;;;13.84;75.81;92527.56;2038469;70;20148;-85
2023/07/26 05:11:03;;;;;;;0.57;0.30;;;;;;;13.93;75.57;92523.00;2037803;70;20152;-85
2023/07/26 05:13:28;;;;;;;1.75;0.35;;;;;;;13.86;75.65;92532.56;2038935;70;20182;-87
2023/07/26 05:15:54;;;;;;;0.65;0.20;;;;;;;13.90;74.53;92524.28;2038604;70;20151;-86
2023/07/26 05:18:20;;;;;;;0.90;0.40;;;;;;;13.94;75.06;92538.63;2038212;70;20521;-87
2023/07/26 05:20:50;;;;;;;0.80;0.40;;;;;;;13.85;75.29;92534.69;2038409;70;20147;-87
2023/07/26 05:23:16;;;;;;;0.85;0.28;;;;;;;13.83;75.41;92539.50;2038755;70;20170;-88
2023/07/26 05:25:42;;;;;;;0.52;0.22;;;;;;;13.81;75.64;92545.09;2040193;70;20195;-87
2023/07/26 05:28:07;;;;;;;0.28;0.28;;;;;;;13.87;75.64;92554.56;2039185;70;20136;-88
2023/07/26 05:30:40;;;;;;;0.50;0.40;;;;;;;13.85;75.53;92554.50;2039041;70;20148;-88
2023/07/26 05:33:07;;;;;;;1.52;0.63;;;;;;;13.99;75.03;92554.41;2038677;70;20227;-88
2023/07/26 05:35:33;;;;;;;4.03;0.90;;;;;;;14.00;75.40;92558.69;2039128;70;20246;-88
2023/07/26 05:37:59;;;;;;;1.55;0.85;;;;;;;13.87;75.75;92554.56;2039105;70;20179;-88
2023/07/26 05:40:24;;;;;;;1.35;0.30;;;;;;;13.91;75.59;92556.88;2039004;70;20151;-88
2023/07/26 05:42:50;;;;;;;0.63;0.40;;;;;;;14.03;74.83;92553.88;2040106;70;20152;-88
2023/07/26 05:45:15;;;;;;;0.63;0.30;;;;;;;13.87;75.51;92560.22;2039341;70;20184;-87
2023/07/26 05:47:42;;;;;;;0.45;0.30;;;;;;;13.83;75.93;92565.69;2039337;70;20150;-87
2023/07/26 05:50:10;;;;;;;0.50;0.35;;;;;;;13.95;75.53;92559.88;2039376;70;20170;-88
2023/07/26 05:52:36;;;;;;;0.40;0.20;;;;;;;14.11;74.43;92565.53;2039318;70;20139;-87
2023/07/26 05:55:02;;;;;;;0.28;0.25;;;;;;;14.18;74.20;92559.53;2039307;70;20195;-88
2023/07/26 05:57:28;;;;;;;2.65;0.22;;;;;;;14.18;73.26;92573.69;2039137;70;20645;-88
2023/07/26 05:59:53;;;;;;;0.98;0.45;;;;;;;14.29;72.64;92569.19;2040210;70;20544;-87
2023/07/26 06:02:19;;;;;;;0.57;0.30;;;;;;;14.37;73.60;92568.84;2042298;70;20161;-87
2023/07/26 06:04:46;;;;;;;2.05;0.68;;;;;;;14.33;74.37;92568.66;2042353;70;20601;-88
2023/07/26 06:07:12;;;;;;;1.25;0.60;;;;;;;14.73;73.50;92573.31;2042788;70;20146;-85
2023/07/26 06:09:38;;;;;;;0.38;0.30;;;;;;;14.62;74.42;92574.25;2042441;70;20227;-87
2023/07/26 06:12:07;;;;;;;1.85;0.32;;;;;;;14.76;74.11;92565.63;2039122;70;20242;-87
2023/07/26 06:14:32;;;;;;;1.48;0.20;;;;;;;14.91;72.46;92583.97;2042696;70;20298;-87
2023/07/26 06:16:58;;;;;;;1.55;0.20;;;;;;;14.88;73.70;92566.13;2043561;70;20144;-85
2023/07/26 06:19:25;;;;;;;0.20;0.20;;;;;;;14.90;73.46;92574.00;2042958;70;20131;-87
2023/07/26 06:21:55;;;;;;;1.10;0.32;;;;;;;15.00;73.67;92578.00;2042226;70;20502;-87
2023/07/26 06:24:26;;;;;;;1.48;0.40;;;;;;;14.88;72.30;92583.16;2043672;70;20213;-87
2023/07/26 06:26:53;;;;;;;1.75;0.50;;;;;;;15.01;72.33;92553.22;2042067;70;20218;-85
2023/07/26 06:29:20;;;;;;;1.85;0.40;;;;;;;15.00;72.78;92561.00;2045804;70;20663;-87
2023/07/26 06:31:45;;;;;;;0.28;0.20;;;;;;;15.14;72.32;92560.88;2045575;70;20601;-83
2023/07/26 06:34:11;;;;;;;0.30;0.20;;;;;;;15.05;72.11;92535.66;2045135;70;20155;-86
2023/07/26 06:36:37;;;;;;;1.30;0.20;;;;;;;15.11;72.52;92553.63;2045340;70;20218;-86
2023/07/26 06:39:03;;;;;;;0.20;0.20;;;;;;;15.08;71.88;92552.13;2045243;70;20162;-88
2023/07/26 06:41:28;;;;;;;0.20;0.20;;;;;;;15.10;70.90;92540.13;2046257;70;20166;-84
2023/07/26 06:43:54;;;;;;;4.70;0.93;;;;;;;15.08;70.77;92554.22;2046561;70;20166;-92
2023/07/26 06:46:19;;;;;;;5.55;1.80;;;;;;;14.95;69.69;92556.53;2046385;70;20165;-88
2023/07/26 06:48:45;;;;;;;4.20;1.15;;;;;;;14.75;70.51;92564.16;2045964;70;20162;-86
2023/07/26 06:51:11;;;;;;;2.58;1.00;;;;;;;14.74;72.30;92565.53;2045615;70;20147;-85
2023/07/26 06:53:36;;;;;;;4.50;0.90;;;;;;;14.63;72.47;92567.19;2045301;70;20167;-88
2023/07/26 06:56:02;;;;;;;1.83;0.90;;;;;;;14.67;71.56;92561.72;2046403;70;20146;-89
2023/07/26 06:58:27;;;;;;;2.67;0.88;;;;;;;14.66;71.82;92557.44;2046196;70;20147;-89
2023/07/26 07:00:54;;;;;;;4.10;1.20;;;;;;;14.87;71.11;92564.69;2046295;70;20163;-89
2023/07/26 07:03:20;;;;;;;4.35;1.00;;;;;;;14.84;69.98;92565.97;2045861;70;20597;-89
2023/07/26 07:05:46;;;;;;;2.28;0.70;;;;;;;14.81;70.17;92578.59;2047151;70;20150;-89
2023/07/26 07:08:12;;;;;;;1.50;0.70;;;;;;;14.47;72.10;92569.28;2047038;70;20143;-87
2023/07/26 07:10:38;;;;;;;1.17;0.68;;;;;;;14.37;72.67;92561.06;2045823;70;20150;-89
2023/07/26 07:13:03;;;;;;;0.73;0.60;;;;;;;14.07;73.54;92573.88;2043409;70;20142;-89
2023/07/26 07:15:29;;;;;;;0.70;0.55;;;;;;;14.70;71.84;92571.03;2045540;70;20661;-89
2023/07/26 07:17:55;;;;;;;1.23;0.55;;;;;;;14.53;70.34;92563.22;2044775;70;20566;-88
2023/07/26 07:20:21;;;;;;;0.85;0.57;;;;;;;14.96;69.14;92562.94;2045470;70;20143;-90
2023/07/26 07:22:46;;;;;;;2.55;0.68;;;;;;;15.27;69.27;92564.94;2045805;70;20157;-90
2023/07/26 07:25:12;;;;;;;1.35;0.60;;;;;;;15.43;68.54;92559.19;2046517;70;20147;-89
2023/07/26 07:27:38;;;;;;;2.08;0.60;;;;;;;15.37;69.00;92568.19;2045178;70;20143;-83
2023/07/26 07:30:04;;;;;;;0.50;0.50;;;;;;;15.48;66.49;92570.03;2042399;70;20285;-85
2023/07/26 07:32:30;;;;;;;0.93;0.50;;;;;;;15.30;67.14;92574.97;2045533;70;20151;-89
2023/07/26 07:34:55;;;;;;;3.75;0.68;;;;;;;15.62;67.35;92572.00;2045754;70;20155;-87
2023/07/26 07:37:21;;;;;;;2.20;0.60;;;;;;;15.91;66.88;92565.38;2045177;70;20161;-87
2023/07/26 07:39:47;;;;;;;2.92;1.00;;;;;;;16.03;67.98;92571.50;2045061;70;20150;-87
2023/07/26 07:42:12;;;;;;;1.45;0.70;;;;;;;16.16;67.72;92581.97;2046240;70;20206;-87
2023/07/26 07:44:38;;;;;;;1.13;0.55;;;;;;;16.17;67.45;92569.25;2046019;70;20155;-85
2023/07/26 07:47:04;;;;;;;2.67;0.70;;;;;;;16.24;67.17;92570.91;2046000;70;20139;-87
2023/07/26 07:49:30;;;;;;;2.38;0.55;;;;;;;16.68;66.17;92593.13;2045877;70;20161;-87
2023/07/26 07:51:56;;;;;;;1.20;0.60;;;;;;;16.63;66.73;92585.81;2045382;70;20131;-85
2023/07/26 07:54:21;;;;;;;1.80;0.60;;;;;;;16.85;65.22;92588.75;2045750;70;20139;-85
2023/07/26 07:56:48;;;;;;;1.08;0.57;;;;;;;16.96;65.59;92588.47;2045592;70;20244;-85
2023/07/26 07:59:14;;;;;;;2.38;0.63;;;;;;;16.88;66.58;92576.81;2045954;70;20660;-87
2023/07/26 08:01:40;;;;;;;2.55;0.70;;;;;;;16.70;65.89;92591.06;2045350;70;20159;-82
2023/07/26 08:04:08;;;;;;;1.42;0.55;;;;;;;16.88;65.73;92590.31;2046416;70;20147;-85
2023/07/26 08:06:33;;;;;;;1.48;0.60;;;;;;;16.88;67.03;92596.00;2046158;70;20139;-86
2023/07/26 08:09:00;;;;;;;2.88;0.60;;;;;;;17.06;66.03;92590.94;2045555;70;20163;-83
2023/07/26 08:11:25;;;;;;;0.60;0.50;;;;;;;16.81;61.87;92589.34;2041645;70;20149;-86
2023/07/26 08:13:51;;;;;;;2.33;0.50;;;;;;;16.94;61.94;92579.88;2044989;70;20146;-85
2023/07/26 08:16:16;;;;;;;1.02;0.50;;;;;;;17.10;62.28;92593.22;2045127;70;20143;-86
2023/07/26 08:18:42;;;;;;;1.45;0.40;;;;;;;17.14;64.64;92593.34;2046001;70;20257;-87
2023/07/26 08:21:11;;;;;;;0.85;0.60;;;;;;;17.30;65.77;92584.63;2045012;70;20175;-87
2023/07/26 08:23:37;;;;;;;2.25;0.57;;;;;;;17.42;64.04;92596.44;2046249;70;20646;-88
2023/07/26 08:26:07;;;;;;;2.25;0.60;;;;;;;17.40;65.78;92597.09;2043571;70;20167;-82
2023/07/26 08:28:33;;;;;;;0.50;0.50;;;;;;;17.27;62.83;92595.97;2045690;70;20158;-87
2023/07/26 08:31:01;;;;;;;1.08;0.60;;;;;;;17.10;60.91;92591.09;2045127;70;20149;-86
2023/07/26 08:33:27;;;;;;;0.63;0.50;;;;;;;17.24;59.47;92590.84;2044827;70;20163;-88
2023/07/26 08:35:53;;;;;;;1.40;0.50;;;;;;;17.40;59.39;92593.50;2045672;70;20166;-87
2023/07/26 08:38:19;;;;;;;2.33;0.60;;;;;;;17.46;59.49;92591.63;2042067;70;20880;-87
2023/07/26 08:40:52;;;;;;;0.82;0.50;;;;;;;17.53;56.63;92592.53;2044689;70;20163;-88
2023/07/26 08:43:21;;;;;;;0.65;0.40;;;;;;;17.14;55.49;92590.50;2035846;70;20154;-85
2023/07/26 08:45:47;;;;;;;1.92;0.50;;;;;;;16.97;56.25;92595.63;2045277;70;20151;-88
2023/07/26 08:48:13;;;;;;;0.80;0.60;;;;;;;16.98;55.92;92584.97;2044590;70;20143;-87
2023/07/26 08:50:40;;;;;;;1.30;0.50;;;;;;;17.77;57.05;92592.63;2044962;70;20158;-86
2023/07/26 08:53:07;;;;;;;0.50;0.50;;;;;;;17.93;56.38;92598.84;2045044;70;20222;-88
2023/07/26 08:55:34;;;;;;;0.57;0.57;;;;;;;18.21;58.04;92590.47;2045256;70;20181;-90
2023/07/26 08:58:00;;;;;;;1.02;0.55;;;;;;;18.38;56.40;92599.53;2042560;70;20223;-89
2023/07/26 09:00:27;;;;;;;0.82;0.50;;;;;;;18.41;57.37;92598.91;2045438;70;20147;-84
2023/07/26 09:02:57;;;;;;;1.02;0.70;;;;;;;18.36;53.12;92600.19;2045700;70;20486;-90
2023/07/26 09:05:24;;;;;;;0.88;0.50;;;;;;;18.52;53.75;92600.69;2045983;70;20154;-83
2023/07/26 09:07:51;;;;;;;1.63;0.70;;;;;;;18.33;53.49;92606.50;2047024;70;20159;-86
2023/07/26 09:10:29;;;;;;;0.93;0.70;;;;;;;17.70;54.84;92597.38;2046074;70;20189;-91
2023/07/26 09:13:15;;;;;;;1.00;0.70;;;;;;;18.20;52.48;92597.56;2046481;70;20151;-82
2023/07/26 09:15:42;;;;;;;1.10;0.70;;;;;;;18.02;52.16;92606.28;2045273;70;20143;-85
2023/07/26 09:18:09;;;;;;;2.05;0.70;;;;;;;17.88;54.99;92600.13;2045318;70;20146;-83
2023/07/26 09:20:36;;;;;;;1.15;0.60;;;;;;;18.40;54.31;92605.28;2042056;70;20151;-83
2023/07/26 09:23:09;;;;;;;0.90;0.70;;;;;;;18.01;51.97;92606.94;2045073;70;20254;-84
2023/07/26 09:25:42;;;;;;;1.08;0.82;;;;;;;18.44;50.52;92611.09;2045069;70;20612;-85
2023/07/26 09:28:11;;;;;;;2.17;0.80;;;;;;;18.76;50.09;92608.50;2042022;70;20150;-84
2023/07/26 09:30:40;;;;;;;1.38;0.90;;;;;;;19.53;48.37;92613.50;2045376;70;20149;-83
2023/07/26 09:33:07;;;;;;;1.50;0.90;;;;;;;19.57;49.33;92600.75;2045123;70;20239;-83
2023/07/26 09:35:49;;;;;;;0.82;0.73;;;;;;;19.71;47.37;92599.00;2040350;70;20147;-83
2023/07/26 09:38:23;;;;;;;0.82;0.70;;;;;;;19.43;48.04;92601.09;2042721;70;20165;-92
2023/07/26 09:40:49;;;;;;;1.95;0.80;;;;;;;19.00;49.52;92599.91;2046541;70;20225;-91
2023/07/26 09:43:34;;;;;;;1.42;0.73;;;;;;;20.25;49.30;92595.28;2046211;70;20150;-87
2023/07/26 09:46:04;;;;;;;2.30;0.75;;;;;;;20.98;44.76;92591.19;2045523;70;20171;-88
2023/07/26 09:48:29;;;;;;;2.25;0.80;;;;;;;21.90;46.13;92595.78;2045091;70;20182;-89
2023/07/26 09:50:55;;;;;;;1.08;0.70;;;;;;;19.20;47.15;92596.91;2045385;70;20147;-90
2023/07/26 09:53:23;;;;;;;1.10;0.90;;;;;;;19.56;47.96;92599.97;2045516;70;20155;-89
2023/07/26 09:55:49;;;;;;;2.30;0.80;;;;;;;19.90;46.27;92583.03;2045050;70;20170;-87
2023/07/26 09:58:17;;;;;;;1.27;0.93;;;;;;;21.01;45.05;92569.78;2044938;70;20601;-88
2023/07/26 10:00:45;;;;;;;2.17;0.98;;;;;;;21.54;43.77;92573.69;2045330;70;20230;-88
2023/07/26 10:03:13;;;;;;;1.42;0.77;;;;;;;22.53;41.61;92558.78;2045012;70;20167;-85
2023/07/26 10:05:44;;;;;;;1.75;1.00;;;;;;;22.77;41.71;92556.28;2045045;70;20138;-90
2023/07/26 10:08:11;;;;;;;2.42;0.95;;;;;;;22.50;41.43;92546.56;2045068;70;20621;-89
2023/07/26 10:10:37;;;;;;;1.30;0.82;;;;;;;23.25;40.18;92551.84;2045082;70;20139;-91
2023/07/26 10:13:04;;;;;;;4.90;0.80;;;;;;;22.58;40.82;92546.66;2045261;70;20143;-91
2023/07/26 10:15:30;;;;;;;1.70;0.70;;;;;;;23.84;40.19;92546.72;2045138;70;20167;-91
2023/07/26 10:17:57;;;;;;;2.00;0.68;;;;;;;24.71;39.98;92555.28;2045300;70;20229;-91
2023/07/26 10:20:22;;;;;;;1.15;0.90;;;;;;;24.27;36.56;92544.19;2044993;70;20146;-91
2023/07/26 10:22:50;;;;;;;2.58;0.90;;;;;;;24.52;38.41;92539.34;2041836;70;20143;-90
2023/07/26 10:25:16;;;;;;;1.63;1.00;;;;;;;23.10;37.42;92542.34;2045005;70;20181;-91
2023/07/26 10:27:43;;;;;;;0.88;0.80;;;;;;;23.62;37.47;92540.72;2045012;70;20585;-91
2023/07/26 10:30:11;;;;;;;3.00;0.90;;;;;;;23.57;36.58;92539.97;2045032;70;20158;-92
2023/07/26 10:32:48;;;;;;;2.55;0.90;;;;;;;22.40;38.46;92537.81;2045031;70;20159;-92
2023/07/26 10:35:26;;;;;;;1.10;0.80;;;;;;;21.73;41.01;92531.03;2044978;70;20624;-92
2023/07/26 10:37:52;;;;;;;1.73;0.90;;;;;;;20.88;42.70;92528.03;2045158;70;20154;-91
2023/07/26 10:40:37;;;;;;;0.95;0.85;;;;;;;20.72;43.16;92533.44;2045165;70;20147;-92
2023/07/26 10:43:23;;;;;;;1.52;0.80;;;;;;;21.61;42.11;92533.69;2041783;70;20509;-92
2023/07/26 10:45:52;;;;;;;1.35;0.90;;;;;;;21.77;42.06;92525.38;2039565;70;20597;-92
2023/07/26 10:48:36;;;;;;;1.70;0.90;;;;;;;22.05;42.12;92530.81;2045193;70;20142;-92
2023/07/26 10:51:31;;;;;;;1.95;1.10;;;;;;;22.05;41.64;92527.97;2050290;70;20154;-91
2023/07/26 10:53:59;;;;;;;1.88;0.95;;;;;;;21.76;41.40;92523.91;2047622;70;20163;-82
2023/07/26 10:56:26;;;;;;;1.08;0.90;;;;;;;21.48;41.98;92524.88;2044853;70;20155;-83
2023/07/26 10:58:54;;;;;;;1.50;0.85;;;;;;;22.17;40.45;92525.28;2044684;70;20199;-86
2023/07/26 11:01:30;;;;;;;2.60;0.90;;;;;;;22.23;39.65;92530.41;2044681;70;20179;-84
2023/07/26 11:03:57;;;;;;;1.63;0.90;;;;;;;20.93;41.03;92529.56;2044771;70;20139;-85
2023/07/26 11:06:49;;;;;;;1.65;0.90;;;;;;;20.61;43.10;92523.19;2044821;70;20146;-83
2023/07/26 11:09:24;;;;;;;1.58;1.10;;;;;;;21.57;41.48;92517.16;2044735;70;20170;-84
2023/07/26 11:12:15;;;;;;;1.13;0.88;;;;;;;22.28;40.80;92529.03;2044792;70;20608;-83
2023/07/26 11:14:42;;;;;;;2.17;1.00;;;;;;;22.10;38.14;92520.16;2043938;70;20162;-84
2023/07/26 11:17:15;;;;;;;1.67;1.00;;;;;;;22.70;37.43;92516.72;2038684;70;20155;-86
2023/07/26 11:19:48;;;;;;;1.10;1.00;;;;;;;21.03;40.41;92520.47;2044739;70;20581;-84
2023/07/26 11:22:15;;;;;;;3.47;1.20;;;;;;;20.55;41.50;92518.78;2044511;70;20139;-84
2023/07/26 11:24:41;;;;;;;2.03;1.00;;;;;;;20.50;42.26;92511.53;2044757;70;20143;-82
2023/07/26 11:27:07;;;;;;;3.00;1.10;;;;;;;20.94;42.67;92518.84;2044248;70;20185;-83
2023/07/26 11:29:34;;;;;;;2.20;1.10;;;;;;;21.40;42.53;92516.16;2044387;70;20151;-83
2023/07/26 11:31:59;;;;;;;2.03;1.00;;;;;;;21.74;41.51;92513.13;2044556;70;20151;-83
2023/07/26 11:34:26;;;;;;;1.75;1.00;;;;;;;21.93;41.93;92516.31;2044571;70;20189;-83